createdAt,value
2023-02-04T05:43:51.487Z,99861.79
2023-02-04T05:46:18.593Z,99865.92
2023-02-04T05:48:45.281Z,99870.22
2023-02-04T05:51:11.895Z,99876.45
2023-02-04T05:53:40.087Z,99878.83
2023-02-04T05:56:07.486Z,99878.69
2023-02-04T05:58:34.461Z,99883.10
2023-02-04T08:13:35.874Z,99917.96
2023-02-04T08:16:32.325Z,99925.84
2023-02-04T08:19:12.027Z,99927.92
2023-02-04T08:21:53.943Z,99928.66
2023-02-04T08:27:53.188Z,99936.69
2023-02-04T08:31:15.644Z,99941.46
2023-02-04T08:34:05.030Z,99943.52
2023-02-04T08:36:50.450Z,99942.11
2023-02-04T08:39:30.365Z,99944.89
2023-02-04T08:42:02.340Z,99944.61
2023-02-04T08:44:44.046Z,99947.17
2023-02-04T08:47:27.956Z,99945.64
2023-02-04T08:49:57.021Z,99946.96
2023-02-04T08:52:37.279Z,99944.86
2023-02-04T08:55:14.214Z,99945.13
2023-02-04T08:58:03.720Z,99937.90
2023-02-04T09:04:43.129Z,99923.84
2023-02-04T09:08:21.961Z,99925.23
2023-02-04T09:11:20.771Z,99922.57
2023-02-04T09:13:53.672Z,99916.63
2023-02-04T09:16:34.948Z,99917.32
2023-02-04T09:19:08.530Z,99915.25
2023-02-04T09:21:38.073Z,99918.27
2023-02-04T09:24:12.477Z,99920.20
2023-02-04T09:26:49.435Z,99918.43
2023-02-04T09:29:22.053Z,99919.55
2023-02-04T09:31:53.631Z,99916.98
2023-02-04T09:34:23.820Z,99912.04
2023-02-04T09:36:55.441Z,99913.50
2023-02-04T09:39:33.723Z,99918.50
2023-02-04T09:42:11.622Z,99922.05
2023-02-04T09:44:48.159Z,99922.44
2023-02-04T09:47:17.572Z,99921.62
2023-02-04T09:49:53.328Z,99919.33
2023-02-04T09:52:25.173Z,99923.04
2023-02-04T09:55:02.533Z,99917.90
2023-02-04T09:57:34.063Z,99918.85
2023-02-04T10:00:17.192Z,99917.69
2023-02-04T10:02:55.638Z,99919.11
2023-02-04T10:05:32.839Z,99920.27
2023-02-04T10:08:19.930Z,99920.63
2023-02-04T10:10:52.061Z,99918.15
2023-02-04T10:13:34.111Z,99914.05
2023-02-04T10:16:15.407Z,99916.37
2023-02-04T10:18:47.176Z,99914.02
2023-02-04T10:21:17.841Z,99910.52
2023-02-04T10:23:51.338Z,99913.86
2023-02-04T10:26:29.808Z,99913.04
2023-02-04T10:29:32.434Z,99906.47
2023-02-04T10:32:37.642Z,99900.09
2023-02-04T10:35:17.386Z,99899.48
2023-02-04T10:37:50.947Z,99899.52
2023-02-04T10:40:35.779Z,99901.98
2023-02-04T10:43:12.582Z,99897.08
2023-02-04T10:45:49.306Z,99900.70
2023-02-04T10:48:27.826Z,99900.40
2023-02-04T10:51:01.072Z,99897.22
2023-02-04T10:54:03.036Z,99892.30
2023-02-04T10:56:38.137Z,99893.16
2023-02-04T10:59:09.824Z,99892.69
2023-02-04T11:01:43.984Z,99891.55
2023-02-04T11:04:18.632Z,99894.27
2023-02-04T11:06:54.550Z,99894.97
2023-02-04T11:09:26.740Z,99898.48
2023-02-04T11:12:00.928Z,99898.79
2023-02-04T11:14:32.604Z,99898.73
2023-02-04T11:17:05.693Z,99898.51
2023-02-04T11:19:46.751Z,99894.73
